createdAt,value
2019-03-12T00:02:25.897Z,99.9
2019-03-12T00:03:33.107Z,99.9
2019-03-12T00:04:40.311Z,99.9
2019-03-12T00:05:47.526Z,99.9
2019-03-12T00:06:54.465Z,99.9
2019-03-12T00:08:01.675Z,99.9
2019-03-12T00:09:08.883Z,99.9
2019-03-12T00:10:16.098Z,99.9
2019-03-12T00:11:23.310Z,99.9
2019-03-12T00:12:30.514Z,99.9
2019-03-12T00:13:37.441Z,99.9
2019-03-12T00:14:44.655Z,99.9
2019-03-12T00:15:51.859Z,99.9
2019-03-12T00:16:59.083Z,99.9
2019-03-12T00:18:06.032Z,99.9
2019-03-12T00:19:12.957Z,99.9
2019-03-12T00:20:19.977Z,99.9
2019-03-12T00:21:27.194Z,99.9
2019-03-12T00:22:34.128Z,99.9
2019-03-12T00:23:41.081Z,99.9
2019-03-12T00:24:48.298Z,99.9
2019-03-12T00:25:55.529Z,99.9
2019-03-12T00:27:02.894Z,99.9
2019-03-12T00:28:09.832Z,99.9
2019-03-12T00:29:17.270Z,99.9
2019-03-12T00:30:24.476Z,99.9
2019-03-12T00:31:31.688Z,99.9
2019-03-12T00:32:38.980Z,99.9
2019-03-12T00:33:46.203Z,99.9
2019-03-12T00:34:53.422Z,99.9
2019-03-12T00:36:00.368Z,99.9
2019-03-12T00:37:07.579Z,99.9
2019-03-12T00:38:15.013Z,99.9
2019-03-12T00:39:21.929Z,99.9
2019-03-12T00:40:28.879Z,99.9
2019-03-12T00:41:36.084Z,99.9
2019-03-12T00:42:43.526Z,99.9
2019-03-12T00:43:50.765Z,99.9
2019-03-12T00:44:57.986Z,99.9
2019-03-12T00:46:05.199Z,99.9
2019-03-12T00:47:12.122Z,99.9
2019-03-12T00:48:19.331Z,99.9
2019-03-12T00:49:26.564Z,99.9
2019-03-12T00:50:33.502Z,99.9
2019-03-12T00:51:40.741Z,99.9
2019-03-12T00:52:47.954Z,99.9
2019-03-12T00:53:55.189Z,99.9
2019-03-12T00:55:02.389Z,99.9
2019-03-12T00:56:09.604Z,99.9
2019-03-12T00:57:16.535Z,99.9
2019-03-12T00:58:23.738Z,99.9
2019-03-12T00:59:30.940Z,99.9
2019-03-12T01:00:37.871Z,99.9
2019-03-12T01:01:45.079Z,99.9
2019-03-12T01:02:52.293Z,99.9
2019-03-12T01:03:59.503Z,99.9
2019-03-12T01:05:06.447Z,99.9
2019-03-12T01:06:13.375Z,99.9
2019-03-12T01:07:20.590Z,99.9
2019-03-12T01:08:27.790Z,99.9
2019-03-12T01:09:35.223Z,99.9
2019-03-12T01:10:42.430Z,99.9
2019-03-12T01:11:49.643Z,99.9
2019-03-12T01:12:56.843Z,99.9
2019-03-12T01:14:04.055Z,99.9
2019-03-12T01:15:11.251Z,99.9
2019-03-12T01:16:18.457Z,99.9
2019-03-12T01:17:25.385Z,99.9
2019-03-12T01:18:32.310Z,99.9
2019-03-12T01:19:39.515Z,99.9
2019-03-12T01:20:46.825Z,99.9
2019-03-12T01:21:54.015Z,99.9
2019-03-12T01:23:01.215Z,99.9
2019-03-12T01:24:08.428Z,99.9
2019-03-12T01:25:15.624Z,99.9
2019-03-12T01:26:22.823Z,99.9
2019-03-12T01:27:29.490Z,99.9
2019-03-12T01:28:36.699Z,99.9
2019-03-12T01:29:43.702Z,99.9
2019-03-12T01:30:50.637Z,99.9
2019-03-12T01:31:57.558Z,99.9
2019-03-12T01:33:04.496Z,99.9
2019-03-12T01:34:11.701Z,99.9
2019-03-12T01:35:18.902Z,99.9
2019-03-12T01:36:26.114Z,99.9
2019-03-12T01:37:33.330Z,99.9
2019-03-12T01:38:40.542Z,99.9
2019-03-12T01:39:47.199Z,99.9
2019-03-12T01:40:54.391Z,99.9
2019-03-12T01:42:01.595Z,99.9
2019-03-12T01:43:08.876Z,99.9
2019-03-12T01:44:16.080Z,99.9
2019-03-12T01:45:23.017Z,99.9
2019-03-12T01:46:29.952Z,99.9
2019-03-12T01:47:36.912Z,99.9
2019-03-12T01:48:44.119Z,99.9
2019-03-12T01:49:51.333Z,99.9
2019-03-12T01:50:58.538Z,99.9
2019-03-12T01:52:05.735Z,99.9
2019-03-12T01:53:12.941Z,99.9
2019-03-12T01:54:20.155Z,99.9
2019-03-12T01:55:27.373Z,99.9
2019-03-12T01:56:34.312Z,99.9
2019-03-12T01:57:41.526Z,99.9
2019-03-12T01:58:48.733Z,99.9
2019-03-12T01:59:55.682Z,99.9
2019-03-12T02:01:02.883Z,99.9
2019-03-12T02:02:09.804Z,99.9
2019-03-12T02:03:16.456Z,99.9
2019-03-12T02:04:23.112Z,99.9
2019-03-12T02:05:30.316Z,99.9
2019-03-12T02:06:37.246Z,99.9
2019-03-12T02:07:44.165Z,99.9
2019-03-12T02:08:51.087Z,99.9
2019-03-12T02:09:58.294Z,99.9
2019-03-12T02:11:05.560Z,99.9
2019-03-12T02:12:12.751Z,99.9
2019-03-12T02:13:19.958Z,99.9
2019-03-12T02:14:27.166Z,99.9
2019-03-12T02:15:34.120Z,99.9
2019-03-12T02:16:41.044Z,99.9
2019-03-12T02:17:48.244Z,99.9
2019-03-12T02:18:55.444Z,99.9
2019-03-12T02:20:02.373Z,99.9
2019-03-12T02:21:09.585Z,99.9
2019-03-12T02:22:16.794Z,99.9
2019-03-12T02:23:23.735Z,99.9
2019-03-12T02:24:30.935Z,99.9
2019-03-12T02:25:38.152Z,99.9
2019-03-12T02:26:45.361Z,99.9
2019-03-12T02:27:52.566Z,99.9
2019-03-12T02:28:59.769Z,99.9
2019-03-12T02:30:06.974Z,99.9
2019-03-12T02:31:14.176Z,99.9
2019-03-12T02:32:21.370Z,99.9
2019-03-12T02:33:28.574Z,99.9
2019-03-12T02:34:35.807Z,99.9
2019-03-12T02:35:42.731Z,99.9
2019-03-12T02:36:49.676Z,99.9
2019-03-12T02:37:56.900Z,99.9
2019-03-12T02:39:04.145Z,99.9
2019-03-12T02:40:11.066Z,99.9
2019-03-12T02:41:18.276Z,99.9
2019-03-12T02:42:25.486Z,99.9
2019-03-12T02:43:32.682Z,99.9
2019-03-12T02:44:39.892Z,99.9
2019-03-12T02:45:47.098Z,99.9
2019-03-12T02:46:54.398Z,99.9
2019-03-12T02:48:01.626Z,99.9
2019-03-12T02:49:09.624Z,99.9
2019-03-12T02:50:17.278Z,99.9
2019-03-12T02:51:23.954Z,99.9
2019-03-12T02:52:30.903Z,99.9
2019-03-12T02:53:37.846Z,99.9
2019-03-12T02:54:45.058Z,99.9
2019-03-12T02:57:14.136Z,99.9
2019-03-12T02:58:21.061Z,99.9
2019-03-12T02:59:28.348Z,99.9
2019-03-12T03:00:35.280Z,99.9
2019-03-12T03:01:42.486Z,99.9
2019-03-12T03:02:49.678Z,99.9
2019-03-12T03:03:57.012Z,99.9
2019-03-12T03:05:04.214Z,99.9
2019-03-12T03:06:11.135Z,99.9
2019-03-12T03:07:18.073Z,99.9
2019-03-12T03:08:25.283Z,99.9
2019-03-12T03:09:32.485Z,99.9
2019-03-12T03:10:39.692Z,99.9
2019-03-12T03:11:46.900Z,99.9
2019-03-12T03:12:57.784Z,99.9
2019-03-12T03:14:04.984Z,99.9
2019-03-12T03:15:12.201Z,99.9
2019-03-12T03:16:23.685Z,99.9
2019-03-12T03:17:31.561Z,99.9
2019-03-12T03:18:38.230Z,99.9
2019-03-12T03:19:45.166Z,99.9
2019-03-12T03:20:52.368Z,99.9
2019-03-12T03:21:59.581Z,99.9
2019-03-12T03:23:06.802Z,99.9
2019-03-12T03:24:13.780Z,99.9
2019-03-12T03:25:20.989Z,99.9
2019-03-12T03:26:28.194Z,99.9
2019-03-12T03:27:34.855Z,99.9
2019-03-12T03:28:41.805Z,99.9
2019-03-12T03:29:49.040Z,99.9
2019-03-12T03:30:56.239Z,99.9
2019-03-12T03:32:03.588Z,99.9
2019-03-12T03:33:10.934Z,99.9
2019-03-12T03:34:17.868Z,99.9
2019-03-12T03:35:33.223Z,99.9
2019-03-12T03:36:40.445Z,99.9
2019-03-12T03:37:47.657Z,99.9
2019-03-12T03:38:54.862Z,99.9
2019-03-12T03:40:01.798Z,99.9
2019-03-12T03:41:09.012Z,99.9
2019-03-12T03:42:16.208Z,99.9
2019-03-12T03:44:30.229Z,99.9
2019-03-12T03:45:37.430Z,99.9
2019-03-12T03:46:44.641Z,99.9
2019-03-12T03:47:51.850Z,99.9
2019-03-12T03:48:59.063Z,99.9
2019-03-12T03:50:06.310Z,99.9
2019-03-12T03:51:13.527Z,99.9
2019-03-12T03:52:20.457Z,99.9
2019-03-12T03:53:27.678Z,99.9
2019-03-12T03:54:34.914Z,99.9
2019-03-12T03:55:42.124Z,99.9
2019-03-12T03:56:49.064Z,99.9
2019-03-12T03:57:55.711Z,99.9
2019-03-12T03:59:02.368Z,99.9
2019-03-12T04:00:09.726Z,99.9
2019-03-12T04:01:16.668Z,99.9
2019-03-12T04:02:23.987Z,99.9
2019-03-12T04:03:31.184Z,99.9
2019-03-12T04:04:38.413Z,99.9
2019-03-12T04:05:45.610Z,99.9
2019-03-12T04:06:52.922Z,99.9
2019-03-12T04:07:59.860Z,99.9
2019-03-12T04:09:07.064Z,99.9
2019-03-12T04:10:13.987Z,99.9
2019-03-12T04:11:20.915Z,99.9
2019-03-12T04:12:28.124Z,99.9
2019-03-12T04:13:35.554Z,99.9
2019-03-12T04:14:42.770Z,99.9
2019-03-12T04:15:50.219Z,99.9
2019-03-12T04:16:57.149Z,99.9
2019-03-12T04:18:04.613Z,99.9
2019-03-12T04:19:11.858Z,99.9
2019-03-12T04:20:18.819Z,99.9
2019-03-12T04:21:26.326Z,99.9
2019-03-12T04:22:33.652Z,99.9
2019-03-12T04:23:40.843Z,99.9
2019-03-12T04:24:48.044Z,99.9
2019-03-12T04:25:55.256Z,99.9
2019-03-12T04:27:02.210Z,99.9
2019-03-12T04:28:09.183Z,99.9
2019-03-12T04:29:16.377Z,99.9
2019-03-12T04:30:23.305Z,99.9
2019-03-12T04:31:30.744Z,99.9
2019-03-12T04:32:37.949Z,99.9
2019-03-12T04:33:45.482Z,99.9
2019-03-12T04:34:52.145Z,99.9
2019-03-12T04:35:59.360Z,99.9
2019-03-12T04:37:06.310Z,99.9
2019-03-12T04:38:13.518Z,99.9
2019-03-12T04:39:20.730Z,99.9
2019-03-12T04:40:27.951Z,99.9
2019-03-12T04:41:35.153Z,99.9
2019-03-12T04:42:42.362Z,99.9
2019-03-12T04:43:49.293Z,99.9
2019-03-12T04:44:56.517Z,99.9
2019-03-12T04:46:03.718Z,99.9
2019-03-12T04:47:10.920Z,99.9
2019-03-12T04:48:17.870Z,99.9
2019-03-12T04:49:25.090Z,99.9
2019-03-12T04:50:32.348Z,99.9
2019-03-12T04:51:39.657Z,99.9
2019-03-12T04:52:46.342Z,99.9
2019-03-12T04:53:53.773Z,99.9
2019-03-12T04:55:00.974Z,99.9
2019-03-12T04:56:08.182Z,99.9
2019-03-12T04:57:15.403Z,99.9
2019-03-12T04:58:22.841Z,99.9
2019-03-12T04:59:30.043Z,99.9
2019-03-12T05:00:37.635Z,99.9
2019-03-12T05:01:44.276Z,99.9
2019-03-12T05:02:51.477Z,99.9
2019-03-12T05:03:58.673Z,99.9
2019-03-12T05:05:05.698Z,99.9
2019-03-12T05:06:12.901Z,99.9
2019-03-12T05:07:20.118Z,99.9
2019-03-12T05:08:27.053Z,99.9
2019-03-12T05:09:34.485Z,99.9
2019-03-12T05:10:41.688Z,99.9
2019-03-12T05:11:49.120Z,99.9
2019-03-12T05:12:56.320Z,99.9
2019-03-12T05:14:03.533Z,99.9
2019-03-12T05:15:10.747Z,99.9
2019-03-12T05:16:17.961Z,99.9
2019-03-12T05:17:24.880Z,99.9
2019-03-12T05:18:31.821Z,99.9
2019-03-12T05:19:39.019Z,99.9
2019-03-12T05:20:46.293Z,99.9
2019-03-12T05:21:53.498Z,99.9
2019-03-12T05:23:00.440Z,99.9
2019-03-12T05:24:07.645Z,99.9
2019-03-12T05:25:14.848Z,99.9
2019-03-12T05:26:22.113Z,99.9
2019-03-12T05:27:29.067Z,99.9
2019-03-12T05:28:36.256Z,99.9
2019-03-12T05:29:43.460Z,99.9
2019-03-12T05:30:50.665Z,99.9
2019-03-12T05:31:58.101Z,99.9
2019-03-12T05:33:05.377Z,99.9
2019-03-12T05:34:12.819Z,99.9
2019-03-12T05:35:20.022Z,99.9
2019-03-12T05:36:27.248Z,99.9
2019-03-12T05:37:34.470Z,99.9
2019-03-12T05:38:41.122Z,99.9
2019-03-12T05:39:48.328Z,99.9
2019-03-12T05:40:55.548Z,99.9
2019-03-12T05:42:02.499Z,99.9
2019-03-12T05:43:09.642Z,99.9
2019-03-12T05:44:16.857Z,99.9
2019-03-12T05:45:24.301Z,99.9
2019-03-12T05:46:31.500Z,99.9
2019-03-12T05:47:38.451Z,99.9
2019-03-12T05:48:45.657Z,99.9
2019-03-12T05:49:52.624Z,99.9
2019-03-12T05:50:59.277Z,99.9
2019-03-12T05:52:06.511Z,99.9
2019-03-12T05:53:13.728Z,99.9
2019-03-12T05:54:20.938Z,99.9
2019-03-12T05:55:28.209Z,99.9
2019-03-12T05:56:35.411Z,99.9
2019-03-12T05:57:42.600Z,99.9
2019-03-12T05:58:50.023Z,99.9
2019-03-12T05:59:56.950Z,99.9
2019-03-12T06:01:04.385Z,99.9
2019-03-12T06:02:11.589Z,99.9
2019-03-12T06:03:18.239Z,99.9
2019-03-12T06:04:25.462Z,99.9
2019-03-12T06:06:41.474Z,99.9
2019-03-12T06:07:48.700Z,99.9
2019-03-12T06:08:55.905Z,99.9
2019-03-12T06:10:03.337Z,99.9
2019-03-12T06:11:10.266Z,99.9
2019-03-12T06:12:17.507Z,99.9
2019-03-12T06:13:24.709Z,99.9
2019-03-12T06:14:31.914Z,99.9
2019-03-12T06:15:39.115Z,99.9
2019-03-12T06:16:46.336Z,99.9
2019-03-12T06:17:53.554Z,99.9
2019-03-12T06:19:00.775Z,99.9
2019-03-12T06:20:07.985Z,99.9
2019-03-12T06:21:15.430Z,99.9
2019-03-12T06:22:22.637Z,99.9
2019-03-12T06:23:29.841Z,99.9
2019-03-12T06:24:37.040Z,99.9
2019-03-12T06:25:44.247Z,99.9
2019-03-12T06:26:51.505Z,99.9
2019-03-12T06:27:58.721Z,99.9
2019-03-12T06:29:05.651Z,99.9
2019-03-12T06:30:12.886Z,99.9
2019-03-12T06:31:19.853Z,99.9
2019-03-12T06:32:27.069Z,99.9
2019-03-12T06:33:34.019Z,99.9
2019-03-12T06:34:41.239Z,99.9
2019-03-12T06:35:48.448Z,99.9
2019-03-12T06:36:55.328Z,99.9
2019-03-12T06:38:02.553Z,99.9
2019-03-12T06:39:09.718Z,99.9
2019-03-12T06:40:16.949Z,99.9
2019-03-12T06:41:24.395Z,99.9
2019-03-12T06:42:31.619Z,99.9
2019-03-12T06:43:38.571Z,99.9
2019-03-12T06:44:45.801Z,99.9
2019-03-12T06:45:53.016Z,99.9
2019-03-12T06:46:59.956Z,99.9
2019-03-12T06:48:06.934Z,99.9
2019-03-12T06:49:13.898Z,99.9
2019-03-12T06:50:21.321Z,99.9
2019-03-12T06:51:28.530Z,99.9
2019-03-12T06:52:35.978Z,99.9
2019-03-12T06:53:43.225Z,99.9
2019-03-12T06:54:50.166Z,99.9
2019-03-12T06:55:57.387Z,99.9
2019-03-12T06:57:04.605Z,99.9
2019-03-12T06:58:11.819Z,99.9
2019-03-12T06:59:19.119Z,99.9
2019-03-12T07:00:26.339Z,99.9
2019-03-12T07:01:33.574Z,99.9
2019-03-12T07:02:40.805Z,99.9
2019-03-12T07:03:48.067Z,99.9
2019-03-12T07:04:55.350Z,99.9
2019-03-12T07:06:02.017Z,99.9
2019-03-12T07:07:11.300Z,99.9
2019-03-12T07:08:23.110Z,99.9
2019-03-12T07:09:30.056Z,99.9
2019-03-12T07:10:37.283Z,99.9
2019-03-12T07:11:44.506Z,99.9
2019-03-12T07:12:51.733Z,99.9
2019-03-12T07:13:58.944Z,99.9
2019-03-12T07:15:05.908Z,99.9
2019-03-12T07:16:13.348Z,99.9
2019-03-12T07:17:20.799Z,99.9
2019-03-12T07:18:28.036Z,99.9
2019-03-12T07:19:35.482Z,99.9
2019-03-12T07:20:42.423Z,99.9
2019-03-12T07:21:49.649Z,99.9
2019-03-12T07:22:56.881Z,99.9
2019-03-12T07:24:04.325Z,99.9
2019-03-12T07:25:10.986Z,99.9
2019-03-12T07:26:18.162Z,99.9
2019-03-12T07:27:25.402Z,99.9
2019-03-12T07:28:32.321Z,99.9
2019-03-12T07:29:39.566Z,99.9
2019-03-12T07:30:46.769Z,99.9
2019-03-12T07:31:54.007Z,99.9
2019-03-12T07:33:01.227Z,99.9
2019-03-12T07:34:08.436Z,99.9
2019-03-12T07:35:15.670Z,99.9
2019-03-12T07:36:22.896Z,99.9
2019-03-12T07:37:30.127Z,99.9
2019-03-12T07:38:37.085Z,99.9
2019-03-12T07:39:44.312Z,99.9
2019-03-12T07:40:51.599Z,99.9
2019-03-12T07:41:59.021Z,99.9
2019-03-12T07:43:06.254Z,99.9
2019-03-12T07:44:12.905Z,99.9
2019-03-12T07:45:20.119Z,99.9
2019-03-12T07:46:27.331Z,99.9
2019-03-12T07:47:35.895Z,99.9
2019-03-12T07:48:43.354Z,99.9
2019-03-12T07:49:50.585Z,99.9
2019-03-12T07:50:57.790Z,99.9
2019-03-12T07:52:05.003Z,99.9
2019-03-12T07:53:15.374Z,99.9
2019-03-12T07:54:22.577Z,99.9
2019-03-12T07:55:30.071Z,99.9
2019-03-12T07:56:37.271Z,99.9
2019-03-12T07:57:44.198Z,99.9
2019-03-12T07:58:51.505Z,99.9
2019-03-12T07:59:58.704Z,99.9
2019-03-12T08:01:05.958Z,99.9
2019-03-12T08:02:13.208Z,99.9
2019-03-12T08:03:20.445Z,99.9
2019-03-12T08:05:50.303Z,99.9
2019-03-12T08:06:57.521Z,99.9
2019-03-12T08:08:04.740Z,99.9
2019-03-12T08:09:11.910Z,99.9
2019-03-12T08:10:19.125Z,99.9
2019-03-12T08:11:26.563Z,99.9
2019-03-12T08:12:34.434Z,99.9
2019-03-12T08:13:41.632Z,99.9
2019-03-12T08:14:48.842Z,99.9
2019-03-12T08:15:56.053Z,99.9
2019-03-12T08:17:03.259Z,99.9
2019-03-12T08:18:10.574Z,99.9
2019-03-12T08:19:17.776Z,99.9
2019-03-12T08:20:25.024Z,99.9
2019-03-12T08:21:32.261Z,99.9
2019-03-12T08:22:39.459Z,99.9
2019-03-12T08:23:46.692Z,99.9
2019-03-12T08:24:53.619Z,99.9
2019-03-12T08:26:00.820Z,99.9
2019-03-12T08:27:08.041Z,99.9
2019-03-12T08:28:15.245Z,99.9
2019-03-12T08:29:22.413Z,99.9
2019-03-12T08:30:29.648Z,99.9
2019-03-12T08:31:36.882Z,99.9
2019-03-12T08:32:43.933Z,99.9
2019-03-12T08:33:51.282Z,99.9
2019-03-12T08:34:58.494Z,99.9
2019-03-12T08:36:05.379Z,99.9
2019-03-12T08:37:12.611Z,99.9
2019-03-12T08:38:20.056Z,99.9
2019-03-12T08:39:27.256Z,99.9
2019-03-12T08:40:34.700Z,99.9
2019-03-12T08:41:41.928Z,99.9
2019-03-12T08:42:54.293Z,99.9
2019-03-12T08:44:02.077Z,99.9
2019-03-12T08:45:11.030Z,99.9
2019-03-12T08:46:23.190Z,99.9
2019-03-12T08:47:30.435Z,99.9
2019-03-12T08:48:37.664Z,99.9
2019-03-12T08:49:44.895Z,99.9
2019-03-12T08:50:52.109Z,99.9
2019-03-12T08:51:59.318Z,99.9
2019-03-12T08:53:06.528Z,99.9
2019-03-12T08:54:13.968Z,99.9
2019-03-12T08:56:32.727Z,99.9
2019-03-12T08:57:40.091Z,99.9
2019-03-12T08:58:47.288Z,99.9
2019-03-12T08:59:54.217Z,99.9
2019-03-12T09:01:01.164Z,99.9
2019-03-12T09:02:08.098Z,99.9
2019-03-12T09:04:51.845Z,99.9
2019-03-12T09:05:58.790Z,99.9
2019-03-12T09:07:06.010Z,99.9
2019-03-12T09:08:13.216Z,99.9
2019-03-12T09:09:20.493Z,99.9
2019-03-12T23:00:06.406Z,46.5
2019-03-12T23:01:13.618Z,42.5
2019-03-12T23:02:21.038Z,40
2019-03-12T23:03:28.243Z,44.8
2019-03-12T23:04:35.462Z,53.3
2019-03-12T23:05:42.674Z,59.1
2019-03-12T23:06:49.605Z,66.3
2019-03-12T23:07:56.538Z,60.6
2019-03-12T23:09:03.747Z,62.3
2019-03-12T23:10:10.957Z,68.1
2019-03-12T23:11:18.172Z,77
2019-03-12T23:12:25.386Z,82.3
2019-03-12T23:13:32.592Z,81.7
2019-03-12T23:15:46.787Z,87.9
2019-03-12T23:16:54.053Z,93.4
2019-03-12T23:18:01.261Z,95
2019-03-12T23:19:08.490Z,94.8
2019-03-12T23:20:15.403Z,99.9
2019-03-12T23:21:22.606Z,99.9
2019-03-12T23:22:29.814Z,99.9
2019-03-12T23:23:37.016Z,99.9
2019-03-12T23:24:43.942Z,99.9
2019-03-12T23:25:51.154Z,99.9
2019-03-12T23:26:58.358Z,99.9
2019-03-12T23:28:05.579Z,99.9
2019-03-12T23:29:12.805Z,99.9
2019-03-12T23:30:20.016Z,99.9
2019-03-12T23:31:27.256Z,99.9
2019-03-12T23:32:34.455Z,99.9
2019-03-12T23:33:41.666Z,99.9
2019-03-12T23:34:48.873Z,99.9
2019-03-12T23:35:55.803Z,99.9
2019-03-12T23:37:02.747Z,99.9
2019-03-12T23:38:09.964Z,99.9
2019-03-12T23:39:17.169Z,99.9
2019-03-12T23:40:24.398Z,99.9
2019-03-12T23:41:31.603Z,99.9
2019-03-12T23:42:38.553Z,99.9
2019-03-12T23:43:45.760Z,99.9
2019-03-12T23:44:52.964Z,99.9
2019-03-12T23:46:00.178Z,99.9
2019-03-12T23:47:07.383Z,99.9
2019-03-12T23:48:14.593Z,99.9
2019-03-12T23:49:21.803Z,99.9
2019-03-12T23:50:29.004Z,99.9
2019-03-12T23:51:35.661Z,99.9
2019-03-12T23:52:42.869Z,99.9
2019-03-12T23:53:49.796Z,99.9
2019-03-12T23:54:57.003Z,99.9
2019-03-12T23:56:04.218Z,99.9
2019-03-12T23:57:11.431Z,99.9
2019-03-12T23:58:18.382Z,99.9
2019-03-12T23:59:25.594Z,99.9
